sensor_id;sensor_type;location;lat;lon;timestamp;P1;durP1;ratioP1;P2;durP2;ratioP2
74415;SDS011;62850;42.428;25.618;2022-10-15T00:00:04;5.85;;;2.75;;
74415;SDS011;62850;42.428;25.618;2022-10-15T00:02:31;11.40;;;3.35;;
74415;SDS011;62850;42.428;25.618;2022-10-15T00:04:57;7.22;;;2.67;;
74415;SDS011;62850;42.428;25.618;2022-10-15T00:07:23;9.23;;;3.35;;
74415;SDS011;62850;42.428;25.618;2022-10-15T00:09:49;6.68;;;3.08;;
74415;SDS011;62850;42.428;25.618;2022-10-15T00:12:14;6.65;;;3.13;;
74415;SDS011;62850;42.428;25.618;2022-10-15T00:14:40;8.77;;;2.72;;
74415;SDS011;62850;42.428;25.618;2022-10-15T00:17:06;6.75;;;2.72;;
74415;SDS011;62850;42.428;25.618;2022-10-15T00:19:31;6.55;;;2.97;;
74415;SDS011;62850;42.428;25.618;2022-10-15T00:21:57;7.22;;;2.60;;
74415;SDS011;62850;42.428;25.618;2022-10-15T00:24:22;7.20;;;2.60;;
74415;SDS011;62850;42.428;25.618;2022-10-15T00:26:48;5.95;;;2.50;;
74415;SDS011;62850;42.428;25.618;2022-10-15T00:29:14;7.40;;;3.30;;
74415;SDS011;62850;42.428;25.618;2022-10-15T00:31:39;8.10;;;3.03;;
74415;SDS011;62850;42.428;25.618;2022-10-15T00:34:04;5.68;;;2.63;;
74415;SDS011;62850;42.428;25.618;2022-10-15T00:36:31;8.57;;;2.85;;
74415;SDS011;62850;42.428;25.618;2022-10-15T00:38:58;8.70;;;3.03;;
74415;SDS011;62850;42.428;25.618;2022-10-15T00:41:31;10.23;;;2.80;;
74415;SDS011;62850;42.428;25.618;2022-10-15T00:44:00;6.53;;;2.92;;
74415;SDS011;62850;42.428;25.618;2022-10-15T00:46:44;5.95;;;2.33;;
74415;SDS011;62850;42.428;25.618;2022-10-15T00:49:25;6.20;;;2.78;;
74415;SDS011;62850;42.428;25.618;2022-10-15T00:54:22;5.65;;;2.55;;
74415;SDS011;62850;42.428;25.618;2022-10-15T00:56:50;5.63;;;2.55;;
74415;SDS011;62850;42.428;25.618;2022-10-15T00:59:17;6.63;;;2.63;;
74415;SDS011;62850;42.428;25.618;2022-10-15T01:01:46;5.30;;;2.80;;
74415;SDS011;62850;42.428;25.618;2022-10-15T01:04:11;7.53;;;2.92;;
74415;SDS011;62850;42.428;25.618;2022-10-15T01:06:38;7.38;;;2.90;;
74415;SDS011;62850;42.428;25.618;2022-10-15T01:09:04;6.93;;;2.95;;
74415;SDS011;62850;42.428;25.618;2022-10-15T01:19:48;6.80;;;3.25;;
74415;SDS011;62850;42.428;25.618;2022-10-15T01:31:47;8.32;;;3.50;;
74415;SDS011;62850;42.428;25.618;2022-10-15T01:36:54;8.07;;;3.90;;
74415;SDS011;62850;42.428;25.618;2022-10-15T01:39:33;7.28;;;3.45;;
74415;SDS011;62850;42.428;25.618;2022-10-15T01:42:12;9.18;;;3.75;;
74415;SDS011;62850;42.428;25.618;2022-10-15T01:44:49;10.77;;;4.13;;
74415;SDS011;62850;42.428;25.618;2022-10-15T01:47:22;10.40;;;4.38;;
74415;SDS011;62850;42.428;25.618;2022-10-15T01:49:55;12.48;;;3.80;;
74415;SDS011;62850;42.428;25.618;2022-10-15T01:52:24;9.48;;;3.80;;
74415;SDS011;62850;42.428;25.618;2022-10-15T01:54:54;9.50;;;4.25;;
74415;SDS011;62850;42.428;25.618;2022-10-15T01:57:19;9.00;;;3.72;;
74415;SDS011;62850;42.428;25.618;2022-10-15T01:59:48;7.82;;;3.83;;
74415;SDS011;62850;42.428;25.618;2022-10-15T02:02:14;9.10;;;3.38;;
74415;SDS011;62850;42.428;25.618;2022-10-15T02:04:40;6.93;;;3.65;;
74415;SDS011;62850;42.428;25.618;2022-10-15T02:12:21;12.48;;;4.15;;
74415;SDS011;62850;42.428;25.618;2022-10-15T02:15:18;10.48;;;3.63;;
74415;SDS011;62850;42.428;25.618;2022-10-15T02:18:12;9.43;;;3.67;;
74415;SDS011;62850;42.428;25.618;2022-10-15T02:20:56;8.52;;;3.53;;
74415;SDS011;62850;42.428;25.618;2022-10-15T02:23:55;8.27;;;3.60;;
74415;SDS011;62850;42.428;25.618;2022-10-15T02:26:35;6.70;;;3.50;;
74415;SDS011;62850;42.428;25.618;2022-10-15T02:29:02;7.82;;;3.40;;
74415;SDS011;62850;42.428;25.618;2022-10-15T02:31:31;8.55;;;3.85;;
74415;SDS011;62850;42.428;25.618;2022-10-15T02:34:00;9.70;;;3.70;;
74415;SDS011;62850;42.428;25.618;2022-10-15T02:36:30;7.20;;;3.30;;
74415;SDS011;62850;42.428;25.618;2022-10-15T02:38:56;9.13;;;3.78;;
74415;SDS011;62850;42.428;25.618;2022-10-15T02:41:24;9.55;;;3.78;;
74415;SDS011;62850;42.428;25.618;2022-10-15T02:43:52;8.98;;;3.63;;
74415;SDS011;62850;42.428;25.618;2022-10-15T02:46:18;6.72;;;3.20;;
74415;SDS011;62850;42.428;25.618;2022-10-15T02:48:44;7.32;;;3.58;;
74415;SDS011;62850;42.428;25.618;2022-10-15T02:51:10;6.93;;;3.38;;
74415;SDS011;62850;42.428;25.618;2022-10-15T02:53:35;9.30;;;3.50;;
74415;SDS011;62850;42.428;25.618;2022-10-15T02:56:01;8.20;;;3.72;;
74415;SDS011;62850;42.428;25.618;2022-10-15T02:58:26;8.00;;;3.67;;
74415;SDS011;62850;42.428;25.618;2022-10-15T03:00:53;7.57;;;3.40;;
74415;SDS011;62850;42.428;25.618;2022-10-15T03:03:19;7.43;;;3.40;;
74415;SDS011;62850;42.428;25.618;2022-10-15T03:05:44;7.82;;;3.42;;
74415;SDS011;62850;42.428;25.618;2022-10-15T03:08:10;9.13;;;3.60;;
74415;SDS011;62850;42.428;25.618;2022-10-15T03:10:35;8.35;;;3.58;;
74415;SDS011;62850;42.428;25.618;2022-10-15T03:13:02;6.88;;;3.47;;
74415;SDS011;62850;42.428;25.618;2022-10-15T03:15:28;7.10;;;3.47;;
74415;SDS011;62850;42.428;25.618;2022-10-15T03:17:54;9.35;;;3.53;;
74415;SDS011;62850;42.428;25.618;2022-10-15T03:20:19;5.53;;;3.53;;
74415;SDS011;62850;42.428;25.618;2022-10-15T03:22:45;7.80;;;3.63;;
74415;SDS011;62850;42.428;25.618;2022-10-15T03:25:10;6.55;;;3.35;;
74415;SDS011;62850;42.428;25.618;2022-10-15T03:27:36;5.68;;;2.90;;
74415;SDS011;62850;42.428;25.618;2022-10-15T03:30:01;10.18;;;3.58;;
74415;SDS011;62850;42.428;25.618;2022-10-15T03:32:28;6.70;;;3.25;;
74415;SDS011;62850;42.428;25.618;2022-10-15T03:34:53;6.60;;;3.70;;
74415;SDS011;62850;42.428;25.618;2022-10-15T03:37:18;8.50;;;3.10;;
74415;SDS011;62850;42.428;25.618;2022-10-15T03:39:44;8.68;;;3.42;;
74415;SDS011;62850;42.428;25.618;2022-10-15T03:42:09;6.35;;;3.10;;
74415;SDS011;62850;42.428;25.618;2022-10-15T03:44:35;6.93;;;3.20;;
74415;SDS011;62850;42.428;25.618;2022-10-15T03:47:00;6.97;;;3.03;;
74415;SDS011;62850;42.428;25.618;2022-10-15T03:49:26;7.28;;;2.60;;
74415;SDS011;62850;42.428;25.618;2022-10-15T03:51:52;6.03;;;2.53;;
74415;SDS011;62850;42.428;25.618;2022-10-15T03:54:17;7.63;;;2.78;;
74415;SDS011;62850;42.428;25.618;2022-10-15T03:56:43;6.13;;;3.13;;
74415;SDS011;62850;42.428;25.618;2022-10-15T03:59:08;5.70;;;2.25;;
74415;SDS011;62850;42.428;25.618;2022-10-15T04:01:34;7.30;;;3.03;;
74415;SDS011;62850;42.428;25.618;2022-10-15T04:03:59;7.28;;;2.80;;
74415;SDS011;62850;42.428;25.618;2022-10-15T04:06:25;6.05;;;3.42;;
74415;SDS011;62850;42.428;25.618;2022-10-15T04:08:50;6.40;;;2.78;;
74415;SDS011;62850;42.428;25.618;2022-10-15T04:11:16;6.45;;;2.90;;
74415;SDS011;62850;42.428;25.618;2022-10-15T04:13:41;6.70;;;2.65;;
74415;SDS011;62850;42.428;25.618;2022-10-15T04:16:07;6.95;;;2.40;;
74415;SDS011;62850;42.428;25.618;2022-10-15T04:18:32;5.55;;;2.42;;
74415;SDS011;62850;42.428;25.618;2022-10-15T04:20:58;4.88;;;2.40;;
74415;SDS011;62850;42.428;25.618;2022-10-15T04:23:25;5.25;;;2.25;;
74415;SDS011;62850;42.428;25.618;2022-10-15T04:25:50;6.63;;;2.50;;
74415;SDS011;62850;42.428;25.618;2022-10-15T04:28:16;5.20;;;2.30;;
74415;SDS011;62850;42.428;25.618;2022-10-15T04:30:41;5.10;;;2.40;;
74415;SDS011;62850;42.428;25.618;2022-10-15T04:33:07;5.60;;;2.10;;
74415;SDS011;62850;42.428;25.618;2022-10-15T04:35:33;4.72;;;2.25;;
74415;SDS011;62850;42.428;25.618;2022-10-15T04:37:59;5.15;;;2.88;;
74415;SDS011;62850;42.428;25.618;2022-10-15T04:40:25;6.57;;;2.30;;
74415;SDS011;62850;42.428;25.618;2022-10-15T04:42:51;4.65;;;2.20;;
74415;SDS011;62850;42.428;25.618;2022-10-15T04:45:16;4.97;;;2.42;;
74415;SDS011;62850;42.428;25.618;2022-10-15T04:47:42;8.18;;;2.80;;
74415;SDS011;62850;42.428;25.618;2022-10-15T04:50:08;4.63;;;2.40;;
74415;SDS011;62850;42.428;25.618;2022-10-15T04:52:34;5.65;;;2.13;;
74415;SDS011;62850;42.428;25.618;2022-10-15T04:55:00;6.78;;;2.30;;
74415;SDS011;62850;42.428;25.618;2022-10-15T04:57:27;4.90;;;2.03;;
74415;SDS011;62850;42.428;25.618;2022-10-15T04:59:52;4.60;;;1.90;;
74415;SDS011;62850;42.428;25.618;2022-10-15T05:02:18;5.25;;;2.40;;
74415;SDS011;62850;42.428;25.618;2022-10-15T05:04:43;6.10;;;1.98;;
74415;SDS011;62850;42.428;25.618;2022-10-15T05:07:09;4.70;;;2.10;;
74415;SDS011;62850;42.428;25.618;2022-10-15T05:09:34;5.32;;;2.33;;
74415;SDS011;62850;42.428;25.618;2022-10-15T05:12:00;5.63;;;2.22;;
74415;SDS011;62850;42.428;25.618;2022-10-15T05:14:26;4.85;;;2.20;;
74415;SDS011;62850;42.428;25.618;2022-10-15T05:16:52;4.03;;;2.05;;
74415;SDS011;62850;42.428;25.618;2022-10-15T05:19:17;4.70;;;1.90;;
74415;SDS011;62850;42.428;25.618;2022-10-15T05:21:43;5.40;;;2.65;;
74415;SDS011;62850;42.428;25.618;2022-10-15T05:24:09;5.20;;;2.40;;
74415;SDS011;62850;42.428;25.618;2022-10-15T05:26:35;6.43;;;3.03;;
74415;SDS011;62850;42.428;25.618;2022-10-15T05:29:00;12.50;;;3.53;;
74415;SDS011;62850;42.428;25.618;2022-10-15T05:31:27;6.43;;;3.10;;
74415;SDS011;62850;42.428;25.618;2022-10-15T05:33:54;5.65;;;2.67;;
74415;SDS011;62850;42.428;25.618;2022-10-15T05:36:27;7.60;;;2.20;;
74415;SDS011;62850;42.428;25.618;2022-10-15T05:38:57;5.45;;;2.45;;
74415;SDS011;62850;42.428;25.618;2022-10-15T05:41:25;7.18;;;3.17;;
74415;SDS011;62850;42.428;25.618;2022-10-15T05:43:51;5.47;;;2.50;;
74415;SDS011;62850;42.428;25.618;2022-10-15T05:46:18;6.65;;;2.75;;
74415;SDS011;62850;42.428;25.618;2022-10-15T05:48:51;6.30;;;2.08;;
74415;SDS011;62850;42.428;25.618;2022-10-15T05:51:19;5.38;;;2.20;;
74415;SDS011;62850;42.428;25.618;2022-10-15T05:53:45;7.38;;;2.72;;
74415;SDS011;62850;42.428;25.618;2022-10-15T05:56:11;6.28;;;2.50;;
74415;SDS011;62850;42.428;25.618;2022-10-15T05:58:37;7.00;;;2.97;;
74415;SDS011;62850;42.428;25.618;2022-10-15T06:01:05;7.28;;;2.50;;
74415;SDS011;62850;42.428;25.618;2022-10-15T06:03:32;7.28;;;2.72;;
74415;SDS011;62850;42.428;25.618;2022-10-15T06:05:58;5.70;;;2.40;;
74415;SDS011;62850;42.428;25.618;2022-10-15T06:08:24;7.68;;;2.63;;
74415;SDS011;62850;42.428;25.618;2022-10-15T06:10:50;7.53;;;2.45;;
74415;SDS011;62850;42.428;25.618;2022-10-15T06:13:21;6.07;;;2.13;;
74415;SDS011;62850;42.428;25.618;2022-10-15T06:15:49;4.78;;;2.10;;
74415;SDS011;62850;42.428;25.618;2022-10-15T06:18:15;4.63;;;1.85;;
74415;SDS011;62850;42.428;25.618;2022-10-15T06:20:43;6.50;;;2.10;;
74415;SDS011;62850;42.428;25.618;2022-10-15T06:23:14;7.05;;;2.08;;
74415;SDS011;62850;42.428;25.618;2022-10-15T06:25:40;6.82;;;2.50;;
74415;SDS011;62850;42.428;25.618;2022-10-15T06:28:06;5.60;;;2.30;;
74415;SDS011;62850;42.428;25.618;2022-10-15T06:30:32;6.78;;;2.03;;
74415;SDS011;62850;42.428;25.618;2022-10-15T06:32:57;8.60;;;2.58;;
74415;SDS011;62850;42.428;25.618;2022-10-15T06:35:23;6.72;;;2.63;;
74415;SDS011;62850;42.428;25.618;2022-10-15T06:37:50;6.68;;;2.08;;
74415;SDS011;62850;42.428;25.618;2022-10-15T06:40:16;10.68;;;3.47;;
74415;SDS011;62850;42.428;25.618;2022-10-15T06:42:42;7.82;;;3.05;;
74415;SDS011;62850;42.428;25.618;2022-10-15T06:45:08;4.68;;;1.80;;
74415;SDS011;62850;42.428;25.618;2022-10-15T06:47:35;6.00;;;2.28;;
74415;SDS011;62850;42.428;25.618;2022-10-15T06:50:01;6.22;;;2.38;;
74415;SDS011;62850;42.428;25.618;2022-10-15T06:52:29;6.30;;;2.25;;
74415;SDS011;62850;42.428;25.618;2022-10-15T06:54:54;4.55;;;1.63;;
74415;SDS011;62850;42.428;25.618;2022-10-15T06:57:20;3.90;;;1.70;;
74415;SDS011;62850;42.428;25.618;2022-10-15T06:59:45;5.35;;;1.98;;
74415;SDS011;62850;42.428;25.618;2022-10-15T07:02:11;4.85;;;2.08;;
74415;SDS011;62850;42.428;25.618;2022-10-15T07:04:38;5.03;;;2.10;;
74415;SDS011;62850;42.428;25.618;2022-10-15T07:07:04;4.28;;;1.52;;
74415;SDS011;62850;42.428;25.618;2022-10-15T07:09:29;5.32;;;1.75;;
74415;SDS011;62850;42.428;25.618;2022-10-15T07:11:55;3.88;;;1.48;;
74415;SDS011;62850;42.428;25.618;2022-10-15T07:14:21;4.10;;;1.40;;
74415;SDS011;62850;42.428;25.618;2022-10-15T07:16:46;3.85;;;1.67;;
74415;SDS011;62850;42.428;25.618;2022-10-15T07:19:12;5.05;;;1.75;;
74415;SDS011;62850;42.428;25.618;2022-10-15T07:21:37;3.85;;;1.58;;
74415;SDS011;62850;42.428;25.618;2022-10-15T07:24:03;4.32;;;1.52;;
74415;SDS011;62850;42.428;25.618;2022-10-15T07:26:28;4.15;;;1.65;;
74415;SDS011;62850;42.428;25.618;2022-10-15T07:28:55;3.45;;;1.60;;
74415;SDS011;62850;42.428;25.618;2022-10-15T07:31:21;3.70;;;1.63;;
74415;SDS011;62850;42.428;25.618;2022-10-15T07:33:46;8.90;;;2.15;;
74415;SDS011;62850;42.428;25.618;2022-10-15T07:36:12;7.22;;;1.65;;
74415;SDS011;62850;42.428;25.618;2022-10-15T07:38:37;5.35;;;1.70;;
74415;SDS011;62850;42.428;25.618;2022-10-15T07:41:07;3.53;;;1.73;;
74415;SDS011;62850;42.428;25.618;2022-10-15T07:43:34;3.85;;;1.63;;
74415;SDS011;62850;42.428;25.618;2022-10-15T07:46:01;4.82;;;1.85;;
74415;SDS011;62850;42.428;25.618;2022-10-15T07:48:27;5.65;;;2.05;;
74415;SDS011;62850;42.428;25.618;2022-10-15T07:50:53;7.35;;;2.05;;
74415;SDS011;62850;42.428;25.618;2022-10-15T07:53:23;4.00;;;1.75;;
74415;SDS011;62850;42.428;25.618;2022-10-15T07:55:49;3.83;;;1.73;;
74415;SDS011;62850;42.428;25.618;2022-10-15T07:58:14;3.38;;;1.60;;
74415;SDS011;62850;42.428;25.618;2022-10-15T08:00:40;5.90;;;2.15;;
74415;SDS011;62850;42.428;25.618;2022-10-15T08:03:06;4.07;;;1.88;;
74415;SDS011;62850;42.428;25.618;2022-10-15T08:05:32;4.90;;;1.67;;
74415;SDS011;62850;42.428;25.618;2022-10-15T08:07:58;4.55;;;1.80;;
74415;SDS011;62850;42.428;25.618;2022-10-15T08:10:23;7.20;;;1.80;;
74415;SDS011;62850;42.428;25.618;2022-10-15T08:12:49;5.97;;;2.30;;
74415;SDS011;62850;42.428;25.618;2022-10-15T08:15:15;4.22;;;1.90;;
74415;SDS011;62850;42.428;25.618;2022-10-15T08:17:40;4.57;;;2.03;;
74415;SDS011;62850;42.428;25.618;2022-10-15T08:20:06;4.03;;;1.70;;
74415;SDS011;62850;42.428;25.618;2022-10-15T08:22:32;7.65;;;2.20;;
74415;SDS011;62850;42.428;25.618;2022-10-15T08:24:58;6.85;;;2.53;;
74415;SDS011;62850;42.428;25.618;2022-10-15T08:27:24;5.57;;;2.90;;
74415;SDS011;62850;42.428;25.618;2022-10-15T08:29:50;6.03;;;2.20;;
74415;SDS011;62850;42.428;25.618;2022-10-15T08:32:15;4.72;;;2.17;;
74415;SDS011;62850;42.428;25.618;2022-10-15T08:34:40;6.40;;;2.60;;
74415;SDS011;62850;42.428;25.618;2022-10-15T08:37:06;4.88;;;2.53;;
74415;SDS011;62850;42.428;25.618;2022-10-15T08:39:31;6.13;;;2.90;;
74415;SDS011;62850;42.428;25.618;2022-10-15T08:41:58;6.47;;;2.72;;
74415;SDS011;62850;42.428;25.618;2022-10-15T08:44:30;4.38;;;2.55;;
74415;SDS011;62850;42.428;25.618;2022-10-15T08:50:04;6.25;;;2.75;;
74415;SDS011;62850;42.428;25.618;2022-10-15T08:52:42;5.53;;;2.30;;
74415;SDS011;62850;42.428;25.618;2022-10-15T08:55:14;4.82;;;2.20;;
74415;SDS011;62850;42.428;25.618;2022-10-15T08:57:47;4.35;;;2.00;;
74415;SDS011;62850;42.428;25.618;2022-10-15T09:00:39;5.82;;;2.10;;
74415;SDS011;62850;42.428;25.618;2022-10-15T09:05:52;9.68;;;3.90;;
74415;SDS011;62850;42.428;25.618;2022-10-15T09:13:54;7.03;;;2.30;;
74415;SDS011;62850;42.428;25.618;2022-10-15T09:16:23;6.45;;;2.33;;
74415;SDS011;62850;42.428;25.618;2022-10-15T09:18:52;6.53;;;2.38;;
74415;SDS011;62850;42.428;25.618;2022-10-15T09:21:22;5.07;;;2.28;;
74415;SDS011;62850;42.428;25.618;2022-10-15T09:23:56;4.75;;;2.70;;
74415;SDS011;62850;42.428;25.618;2022-10-15T09:32:08;4.28;;;2.00;;
74415;SDS011;62850;42.428;25.618;2022-10-15T09:34:53;8.95;;;2.40;;
74415;SDS011;62850;42.428;25.618;2022-10-15T09:37:30;4.95;;;2.42;;
74415;SDS011;62850;42.428;25.618;2022-10-15T09:42:56;5.88;;;2.20;;
74415;SDS011;62850;42.428;25.618;2022-10-15T09:45:24;6.43;;;2.35;;
74415;SDS011;62850;42.428;25.618;2022-10-15T09:47:49;6.30;;;2.50;;
74415;SDS011;62850;42.428;25.618;2022-10-15T09:50:15;7.05;;;2.50;;
74415;SDS011;62850;42.428;25.618;2022-10-15T09:58:07;6.10;;;2.30;;
74415;SDS011;62850;42.428;25.618;2022-10-15T10:01:22;7.18;;;2.85;;
74415;SDS011;62850;42.428;25.618;2022-10-15T10:03:30;7.03;;;3.10;;
74415;SDS011;62850;42.428;25.618;2022-10-15T10:06:04;5.43;;;2.75;;
74415;SDS011;62850;42.428;25.618;2022-10-15T10:08:38;7.07;;;2.63;;
74415;SDS011;62850;42.428;25.618;2022-10-15T10:11:11;4.90;;;2.67;;
74415;SDS011;62850;42.428;25.618;2022-10-15T10:16:15;10.60;;;2.50;;
74415;SDS011;62850;42.428;25.618;2022-10-15T10:18:42;5.60;;;2.53;;
74415;SDS011;62850;42.428;25.618;2022-10-15T10:23:46;5.88;;;2.28;;
74415;SDS011;62850;42.428;25.618;2022-10-15T10:26:12;5.18;;;2.65;;
74415;SDS011;62850;42.428;25.618;2022-10-15T10:31:08;6.47;;;2.60;;
74415;SDS011;62850;42.428;25.618;2022-10-15T10:33:42;5.75;;;2.50;;
74415;SDS011;62850;42.428;25.618;2022-10-15T10:36:20;4.60;;;2.47;;
74415;SDS011;62850;42.428;25.618;2022-10-15T10:39:00;6.05;;;2.45;;
74415;SDS011;62850;42.428;25.618;2022-10-15T10:41:46;7.95;;;2.70;;
74415;SDS011;62850;42.428;25.618;2022-10-15T10:44:25;7.68;;;2.30;;
74415;SDS011;62850;42.428;25.618;2022-10-15T10:49:32;9.60;;;2.85;;
74415;SDS011;62850;42.428;25.618;2022-10-15T10:52:05;5.90;;;2.60;;
74415;SDS011;62850;42.428;25.618;2022-10-15T10:54:42;5.57;;;2.88;;
74415;SDS011;62850;42.428;25.618;2022-10-15T10:57:09;5.07;;;2.20;;
74415;SDS011;62850;42.428;25.618;2022-10-15T10:59:47;7.20;;;2.80;;
74415;SDS011;62850;42.428;25.618;2022-10-15T11:02:16;4.93;;;2.45;;
74415;SDS011;62850;42.428;25.618;2022-10-15T11:04:42;5.28;;;2.78;;
74415;SDS011;62850;42.428;25.618;2022-10-15T11:07:18;5.35;;;2.30;;
74415;SDS011;62850;42.428;25.618;2022-10-15T11:25:45;5.13;;;2.55;;
74415;SDS011;62850;42.428;25.618;2022-10-15T11:31:02;6.03;;;2.70;;
74415;SDS011;62850;42.428;25.618;2022-10-15T11:42:33;6.20;;;2.63;;
74415;SDS011;62850;42.428;25.618;2022-10-15T11:47:49;5.60;;;2.75;;
74415;SDS011;62850;42.428;25.618;2022-10-15T11:50:27;6.13;;;2.55;;
74415;SDS011;62850;42.428;25.618;2022-10-15T11:55:53;8.18;;;2.70;;
74415;SDS011;62850;42.428;25.618;2022-10-15T12:01:11;4.47;;;2.65;;
74415;SDS011;62850;42.428;25.618;2022-10-15T12:04:00;5.88;;;3.13;;
74415;SDS011;62850;42.428;25.618;2022-10-15T12:06:32;4.65;;;2.80;;
74415;SDS011;62850;42.428;25.618;2022-10-15T12:09:01;7.05;;;2.88;;
74415;SDS011;62850;42.428;25.618;2022-10-15T12:11:32;6.25;;;3.40;;
74415;SDS011;62850;42.428;25.618;2022-10-15T12:22:10;5.22;;;2.75;;
74415;SDS011;62850;42.428;25.618;2022-10-15T12:29:47;4.45;;;2.67;;
74415;SDS011;62850;42.428;25.618;2022-10-15T12:32:25;8.25;;;3.00;;
74415;SDS011;62850;42.428;25.618;2022-10-15T12:35:03;7.15;;;2.80;;
74415;SDS011;62850;42.428;25.618;2022-10-15T12:37:31;6.57;;;2.95;;
74415;SDS011;62850;42.428;25.618;2022-10-15T12:40:33;6.63;;;2.85;;
74415;SDS011;62850;42.428;25.618;2022-10-15T12:42:56;7.95;;;3.40;;
74415;SDS011;62850;42.428;25.618;2022-10-15T12:50:32;6.18;;;2.90;;
74415;SDS011;62850;42.428;25.618;2022-10-15T12:52:59;7.70;;;3.03;;
74415;SDS011;62850;42.428;25.618;2022-10-15T12:58:30;9.05;;;3.10;;
74415;SDS011;62850;42.428;25.618;2022-10-15T13:01:02;7.43;;;3.50;;
74415;SDS011;62850;42.428;25.618;2022-10-15T13:09:01;10.23;;;3.13;;
74415;SDS011;62850;42.428;25.618;2022-10-15T13:11:44;6.55;;;2.47;;
74415;SDS011;62850;42.428;25.618;2022-10-15T13:14:29;9.25;;;3.38;;
74415;SDS011;62850;42.428;25.618;2022-10-15T13:17:03;7.07;;;3.10;;
74415;SDS011;62850;42.428;25.618;2022-10-15T13:19:38;7.15;;;2.90;;
74415;SDS011;62850;42.428;25.618;2022-10-15T13:22:21;10.27;;;3.08;;
74415;SDS011;62850;42.428;25.618;2022-10-15T13:24:48;7.13;;;3.10;;
74415;SDS011;62850;42.428;25.618;2022-10-15T13:27:15;7.38;;;3.38;;
74415;SDS011;62850;42.428;25.618;2022-10-15T13:29:52;6.97;;;3.38;;
74415;SDS011;62850;42.428;25.618;2022-10-15T13:32:22;9.55;;;2.78;;
74415;SDS011;62850;42.428;25.618;2022-10-15T13:34:50;6.65;;;3.10;;
74415;SDS011;62850;42.428;25.618;2022-10-15T13:37:17;7.63;;;2.83;;
74415;SDS011;62850;42.428;25.618;2022-10-15T13:39:48;5.78;;;2.60;;
74415;SDS011;62850;42.428;25.618;2022-10-15T13:44:55;6.75;;;3.05;;
74415;SDS011;62850;42.428;25.618;2022-10-15T13:47:25;9.27;;;3.00;;
74415;SDS011;62850;42.428;25.618;2022-10-15T13:49:51;5.85;;;2.70;;
74415;SDS011;62850;42.428;25.618;2022-10-15T13:52:36;7.88;;;2.50;;
74415;SDS011;62850;42.428;25.618;2022-10-15T13:55:04;8.57;;;2.58;;
74415;SDS011;62850;42.428;25.618;2022-10-15T13:57:49;7.18;;;2.70;;
74415;SDS011;62850;42.428;25.618;2022-10-15T14:00:24;5.05;;;2.60;;
74415;SDS011;62850;42.428;25.618;2022-10-15T14:05:45;5.20;;;2.50;;
74415;SDS011;62850;42.428;25.618;2022-10-15T14:08:14;4.63;;;2.60;;
74415;SDS011;62850;42.428;25.618;2022-10-15T14:10:41;5.28;;;2.42;;
74415;SDS011;62850;42.428;25.618;2022-10-15T14:13:08;8.13;;;2.67;;
74415;SDS011;62850;42.428;25.618;2022-10-15T14:15:38;5.30;;;2.25;;
74415;SDS011;62850;42.428;25.618;2022-10-15T14:18:30;8.30;;;2.70;;
74415;SDS011;62850;42.428;25.618;2022-10-15T14:20:59;5.68;;;2.80;;
74415;SDS011;62850;42.428;25.618;2022-10-15T14:23:25;5.60;;;2.35;;
74415;SDS011;62850;42.428;25.618;2022-10-15T14:25:53;7.35;;;2.35;;
74415;SDS011;62850;42.428;25.618;2022-10-15T14:28:20;8.25;;;2.92;;
74415;SDS011;62850;42.428;25.618;2022-10-15T14:30:47;6.20;;;2.90;;
74415;SDS011;62850;42.428;25.618;2022-10-15T14:36:08;6.78;;;2.63;;
74415;SDS011;62850;42.428;25.618;2022-10-15T14:38:54;4.03;;;2.25;;
74415;SDS011;62850;42.428;25.618;2022-10-15T14:41:40;6.30;;;2.35;;
74415;SDS011;62850;42.428;25.618;2022-10-15T14:44:20;6.88;;;2.80;;
74415;SDS011;62850;42.428;25.618;2022-10-15T14:46:47;7.55;;;2.40;;
74415;SDS011;62850;42.428;25.618;2022-10-15T14:51:57;5.45;;;2.40;;
74415;SDS011;62850;42.428;25.618;2022-10-15T14:54:29;6.80;;;2.78;;
74415;SDS011;62850;42.428;25.618;2022-10-15T14:56:59;8.68;;;3.22;;
74415;SDS011;62850;42.428;25.618;2022-10-15T14:59:27;5.18;;;2.85;;
74415;SDS011;62850;42.428;25.618;2022-10-15T15:01:55;7.93;;;2.80;;
74415;SDS011;62850;42.428;25.618;2022-10-15T15:04:33;6.32;;;2.78;;
74415;SDS011;62850;42.428;25.618;2022-10-15T15:07:11;5.20;;;2.65;;
74415;SDS011;62850;42.428;25.618;2022-10-15T15:09:38;7.57;;;3.22;;
74415;SDS011;62850;42.428;25.618;2022-10-15T15:12:07;8.10;;;3.00;;
74415;SDS011;62850;42.428;25.618;2022-10-15T15:14:39;5.72;;;2.92;;
74415;SDS011;62850;42.428;25.618;2022-10-15T15:17:04;6.70;;;3.40;;
74415;SDS011;62850;42.428;25.618;2022-10-15T15:19:30;6.90;;;3.10;;
74415;SDS011;62850;42.428;25.618;2022-10-15T15:21:55;7.43;;;3.03;;
74415;SDS011;62850;42.428;25.618;2022-10-15T15:24:21;5.50;;;2.60;;
74415;SDS011;62850;42.428;25.618;2022-10-15T15:26:47;5.22;;;3.00;;
74415;SDS011;62850;42.428;25.618;2022-10-15T15:29:12;7.85;;;3.10;;
74415;SDS011;62850;42.428;25.618;2022-10-15T15:31:38;5.97;;;3.03;;
74415;SDS011;62850;42.428;25.618;2022-10-15T15:34:04;6.15;;;3.30;;
74415;SDS011;62850;42.428;25.618;2022-10-15T15:36:29;5.32;;;2.75;;
74415;SDS011;62850;42.428;25.618;2022-10-15T15:38:55;5.82;;;2.90;;
74415;SDS011;62850;42.428;25.618;2022-10-15T15:41:22;8.52;;;3.40;;
74415;SDS011;62850;42.428;25.618;2022-10-15T15:43:50;7.70;;;3.20;;
74415;SDS011;62850;42.428;25.618;2022-10-15T15:46:16;7.00;;;3.10;;
74415;SDS011;62850;42.428;25.618;2022-10-15T15:48:42;10.50;;;3.58;;
74415;SDS011;62850;42.428;25.618;2022-10-15T15:53:54;9.50;;;3.25;;
74415;SDS011;62850;42.428;25.618;2022-10-15T15:56:20;6.85;;;3.63;;
74415;SDS011;62850;42.428;25.618;2022-10-15T15:58:47;6.07;;;3.25;;
74415;SDS011;62850;42.428;25.618;2022-10-15T16:01:14;6.97;;;2.95;;
74415;SDS011;62850;42.428;25.618;2022-10-15T16:03:41;7.05;;;3.53;;
74415;SDS011;62850;42.428;25.618;2022-10-15T16:06:07;8.82;;;3.40;;
74415;SDS011;62850;42.428;25.618;2022-10-15T16:08:36;7.47;;;2.88;;
74415;SDS011;62850;42.428;25.618;2022-10-15T16:11:03;7.43;;;3.00;;
74415;SDS011;62850;42.428;25.618;2022-10-15T16:13:29;5.85;;;3.00;;
74415;SDS011;62850;42.428;25.618;2022-10-15T16:15:58;5.55;;;2.95;;
74415;SDS011;62850;42.428;25.618;2022-10-15T16:18:24;7.03;;;3.70;;
74415;SDS011;62850;42.428;25.618;2022-10-15T16:20:55;6.85;;;3.30;;
74415;SDS011;62850;42.428;25.618;2022-10-15T16:23:24;6.20;;;3.20;;
74415;SDS011;62850;42.428;25.618;2022-10-15T16:25:49;9.88;;;3.63;;
74415;SDS011;62850;42.428;25.618;2022-10-15T16:28:15;7.43;;;3.40;;
74415;SDS011;62850;42.428;25.618;2022-10-15T16:30:46;6.15;;;3.40;;
74415;SDS011;62850;42.428;25.618;2022-10-15T16:33:12;8.23;;;3.55;;
74415;SDS011;62850;42.428;25.618;2022-10-15T16:35:37;10.35;;;3.65;;
74415;SDS011;62850;42.428;25.618;2022-10-15T16:38:03;9.60;;;3.40;;
74415;SDS011;62850;42.428;25.618;2022-10-15T16:40:28;9.05;;;3.75;;
74415;SDS011;62850;42.428;25.618;2022-10-15T16:42:54;8.70;;;4.00;;
74415;SDS011;62850;42.428;25.618;2022-10-15T16:45:19;8.05;;;3.53;;
74415;SDS011;62850;42.428;25.618;2022-10-15T16:47:44;8.65;;;3.72;;
74415;SDS011;62850;42.428;25.618;2022-10-15T16:50:10;7.88;;;3.50;;
74415;SDS011;62850;42.428;25.618;2022-10-15T16:52:36;11.60;;;3.80;;
74415;SDS011;62850;42.428;25.618;2022-10-15T16:55:01;7.03;;;3.88;;
74415;SDS011;62850;42.428;25.618;2022-10-15T16:57:30;7.72;;;3.55;;
74415;SDS011;62850;42.428;25.618;2022-10-15T16:59:55;6.85;;;3.55;;
74415;SDS011;62850;42.428;25.618;2022-10-15T17:02:21;8.32;;;3.95;;